Time;durP1;ratioP1;P1;durP2;ratioP2;P2;SDS_P1;SDS_P2;PMS_P1;PMS_P2;Temp;Humidity;BMP_temperature;BMP_pressure;BME280_temperature;BME280_humidity;BME280_pressure;Samples;Min_cycle;Max_cycle;Signal;HPM_P1;HPM_P2
2022/07/08 00:00:52;;;;;;;16.27;3.10;;;;;;;;;;5138691;27;20160;-73
2022/07/08 00:03:21;;;;;;;16.08;2.97;;;;;;;;;;5150616;27;20134;-75
2022/07/08 00:05:47;;;;;;;14.02;2.65;;;;;;;;;;5150967;27;20039;-74
2022/07/08 00:08:13;;;;;;;14.40;3.35;;;;;;;;;;5137984;27;20043;-75
2022/07/08 00:10:39;;;;;;;16.23;3.20;;;;;;;;;;5143970;27;20042;-75
2022/07/08 00:13:05;;;;;;;15.40;2.90;;;;;;;;;;5151995;27;20450;-78
2022/07/08 00:15:31;;;;;;;17.52;3.10;;;;;;;;;;5151179;27;20485;-78
2022/07/08 00:17:57;;;;;;;13.20;3.05;;;;;;;;;;5125964;27;20487;-78
2022/07/08 00:20:23;;;;;;;15.45;3.28;;;;;;;;;;5134340;27;20067;-77
2022/07/08 00:22:49;;;;;;;14.02;3.10;;;;;;;;;;5112806;27;20371;-76
2022/07/08 00:25:16;;;;;;;19.05;3.20;;;;;;;;;;5130891;27;20111;-77
2022/07/08 00:27:42;;;;;;;16.98;2.75;;;;;;;;;;5131395;27;20046;-77
2022/07/08 00:30:08;;;;;;;;;;;;;;;;;;5143292;27;20055;-75
2022/07/08 00:32:35;;;;;;;15.70;3.33;;;;;;;;;;5145125;27;20358;-74
2022/07/08 00:35:01;;;;;;;16.70;3.42;;;;;;;;;;5151102;27;20045;-74
2022/07/08 00:37:27;;;;;;;17.50;2.97;;;;;;;;;;5147004;27;20054;-77
2022/07/08 00:39:53;;;;;;;17.40;3.47;;;;;;;;;;5129937;27;20082;-76
2022/07/08 00:42:19;;;;;;;16.88;3.20;;;;;;;;;;5133111;27;20155;-77
2022/07/08 00:44:46;;;;;;;14.30;3.40;;;;;;;;;;5130524;27;20051;-76
2022/07/08 00:47:12;;;;;;;13.50;3.33;;;;;;;;;;5151193;27;20510;-76
2022/07/08 00:49:39;;;;;;;18.00;3.65;;;;;;;;;;5148442;27;20125;-76
2022/07/08 00:52:06;;;;;;;15.00;3.25;;;;;;;;;;5142966;27;20419;-75
2022/07/08 00:54:32;;;;;;;;;;;;;;;;;;5147951;27;20055;-75
2022/07/08 00:56:58;;;;;;;14.07;3.13;;;;;;;;;;5139954;27;19952;-76
2022/07/08 00:59:25;;;;;;;19.35;3.53;;;;;;;;;;5147159;27;20160;-76
2022/07/08 01:01:51;;;;;;;;;;;;;;;;;;5139017;27;20119;-77
2022/07/08 01:04:17;;;;;;;17.17;3.10;;;;;;;;;;5130132;27;19941;-78
2022/07/08 01:06:43;;;;;;;;;;;;;;;;;;5134407;27;20078;-80
2022/07/08 01:09:10;;;;;;;15.02;3.28;;;;;;;;;;5150855;27;19977;-84
2022/07/08 01:11:36;;;;;;;17.88;3.05;;;;;;;;;;5110927;27;20086;-84
2022/07/08 01:14:03;;;;;;;;;;;;;;;;;;5130415;27;20043;-81
2022/07/08 01:16:29;;;;;;;12.90;2.92;;;;;;;;;;5128968;27;19926;-80
2022/07/08 01:18:55;;;;;;;16.83;3.20;;;;;;;;;;5133051;27;20142;-78
2022/07/08 01:21:21;;;;;;;21.42;3.42;;;;;;;;;;5150650;27;20062;-78
2022/07/08 01:23:47;;;;;;;13.90;3.20;;;;;;;;;;5130821;27;20401;-78
2022/07/08 01:26:14;;;;;;;16.27;3.63;;;;;;;;;;5129753;27;20094;-80
2022/07/08 01:28:40;;;;;;;;;;;;;;;;;;5129697;27;20109;-78
2022/07/08 01:31:06;;;;;;;22.75;4.38;;;;;;;;;;5138414;27;20015;-78
2022/07/08 01:33:32;;;;;;;12.85;3.10;;;;;;;;;;5142820;27;20050;-79
2022/07/08 01:35:58;;;;;;;12.98;3.08;;;;;;;;;;5149434;27;20379;-80
2022/07/08 01:38:24;;;;;;;19.25;3.53;;;;;;;;;;5142994;27;20398;-80
2022/07/08 01:40:50;;;;;;;19.25;3.90;;;;;;;;;;5110524;27;20360;-79
2022/07/08 01:43:16;;;;;;;13.85;2.90;;;;;;;;;;5129592;27;20454;-78
2022/07/08 01:45:42;;;;;;;15.48;2.75;;;;;;;;;;5142615;27;20045;-80
2022/07/08 01:48:08;;;;;;;15.48;2.78;;;;;;;;;;5129531;27;20050;-82
2022/07/08 01:50:34;;;;;;;18.40;3.47;;;;;;;;;;5128881;27;20041;-81
2022/07/08 01:53:00;;;;;;;11.63;2.80;;;;;;;;;;5129073;27;20043;-80
2022/07/08 01:55:26;;;;;;;13.93;3.05;;;;;;;;;;5128354;27;20047;-79
2022/07/08 01:57:54;;;;;;;15.63;3.20;;;;;;;;;;5143478;27;20046;-80
2022/07/08 02:00:20;;;;;;;13.82;3.53;;;;;;;;;;5140491;27;20043;-77
2022/07/08 02:02:47;;;;;;;20.83;4.35;;;;;;;;;;5149011;27;20111;-82
2022/07/08 02:05:13;;;;;;;17.48;3.30;;;;;;;;;;5149132;27;20323;-82
2022/07/08 02:07:40;;;;;;;17.45;3.47;;;;;;;;;;5142481;27;20414;-80
2022/07/08 02:10:06;;;;;;;13.15;3.38;;;;;;;;;;5129283;27;20050;-81
2022/07/08 02:12:32;;;;;;;17.20;3.67;;;;;;;;;;5117282;27;20145;-80
2022/07/08 02:15:01;;;;;;;14.57;3.40;;;;;;;;;;5147740;27;20038;-80
2022/07/08 02:17:28;;;;;;;17.55;3.90;;;;;;;;;;5118316;28;20065;-81
2022/07/08 02:19:54;;;;;;;18.77;3.90;;;;;;;;;;5129499;27;20073;-79
2022/07/08 02:22:21;;;;;;;15.02;3.35;;;;;;;;;;5133884;27;20062;-79
2022/07/08 02:24:47;;;;;;;15.80;3.63;;;;;;;;;;5140185;27;20061;-80
2022/07/08 02:27:13;;;;;;;13.02;3.72;;;;;;;;;;5124716;28;20047;-80
2022/07/08 02:29:39;;;;;;;;;;;;;;;;;;5128971;28;20050;-79
2022/07/08 02:32:06;;;;;;;15.10;3.95;;;;;;;;;;5129196;28;19920;-81
2022/07/08 02:34:32;;;;;;;19.70;4.05;;;;;;;;;;5130451;27;20047;-78
2022/07/08 02:36:58;;;;;;;;;;;;;;;;;;5128936;28;20054;-83
2022/07/08 02:39:24;;;;;;;15.05;3.80;;;;;;;;;;5140484;27;20330;-81
2022/07/08 02:41:51;;;;;;;16.00;3.97;;;;;;;;;;5148945;27;20481;-80
2022/07/08 02:44:17;;;;;;;;;;;;;;;;;;5116668;28;20051;-78
2022/07/08 02:46:43;;;;;;;19.83;4.10;;;;;;;;;;5139392;27;20263;-80
2022/07/08 02:49:10;;;;;;;19.38;3.90;;;;;;;;;;5120630;27;20360;-78
2022/07/08 02:51:36;;;;;;;23.95;4.00;;;;;;;;;;5114502;27;20474;-79
2022/07/08 02:54:02;;;;;;;15.25;4.30;;;;;;;;;;5132227;27;20394;-80
2022/07/08 02:56:29;;;;;;;;;;;;;;;;;;5133894;27;20460;-84
2022/07/08 02:58:55;;;;;;;19.98;3.92;;;;;;;;;;5138357;27;19919;-81
2022/07/08 03:01:21;;;;;;;;;;;;;;;;;;5123209;27;20121;-77
2022/07/08 03:03:47;;;;;;;17.08;3.97;;;;;;;;;;5152879;27;20082;-79
2022/07/08 03:06:13;;;;;;;14.40;4.03;;;;;;;;;;5153193;27;20050;-80
2022/07/08 03:08:39;;;;;;;19.23;4.60;;;;;;;;;;5152944;27;20134;-80
2022/07/08 03:11:06;;;;;;;21.23;4.35;;;;;;;;;;5135974;27;20207;-79
2022/07/08 03:13:32;;;;;;;15.82;4.15;;;;;;;;;;5151926;27;20077;-80
2022/07/08 03:15:58;;;;;;;17.23;3.80;;;;;;;;;;5150889;27;20039;-80
2022/07/08 03:18:24;;;;;;;;;;;;;;;;;;5152112;27;20047;-80
2022/07/08 03:20:51;;;;;;;17.92;4.13;;;;;;;;;;5144567;27;20299;-80
2022/07/08 03:23:17;;;;;;;18.05;4.05;;;;;;;;;;5152365;27;20050;-80
2022/07/08 03:25:43;;;;;;;18.33;4.18;;;;;;;;;;5151947;27;20137;-78
2022/07/08 03:28:09;;;;;;;16.63;3.95;;;;;;;;;;5128489;27;20058;-78
2022/07/08 03:30:35;;;;;;;15.35;4.35;;;;;;;;;;5145457;27;20051;-81
2022/07/08 03:33:01;;;;;;;15.23;4.05;;;;;;;;;;5131296;27;20329;-82
2022/07/08 03:35:27;;;;;;;17.25;4.82;;;;;;;;;;5131405;27;20457;-82
2022/07/08 03:37:53;;;;;;;15.23;4.18;;;;;;;;;;5130735;27;20054;-81
2022/07/08 03:43:04;;;;;;;19.63;4.50;;;;;;;;;;5150888;27;20110;-82
2022/07/08 03:45:30;;;;;;;17.55;4.28;;;;;;;;;;5152272;27;20106;-82
2022/07/08 03:47:56;;;;;;;17.73;4.65;;;;;;;;;;5151792;27;20141;-84
2022/07/08 03:50:23;;;;;;;16.70;4.10;;;;;;;;;;5144123;27;20126;-82
2022/07/08 03:52:49;;;;;;;18.85;4.32;;;;;;;;;;5136065;27;20047;-83
2022/07/08 03:55:15;;;;;;;19.33;4.38;;;;;;;;;;5130853;27;20055;-82
2022/07/08 03:57:41;;;;;;;14.80;4.45;;;;;;;;;;5112601;27;20369;-83
2022/07/08 04:00:08;;;;;;;15.50;4.05;;;;;;;;;;5131463;27;20826;-83
2022/07/08 04:02:34;;;;;;;16.60;4.82;;;;;;;;;;5112616;27;20360;-87
2022/07/08 04:05:00;;;;;;;16.60;4.40;;;;;;;;;;5145108;27;20390;-81
2022/07/08 04:07:26;;;;;;;18.25;4.32;;;;;;;;;;5151222;27;20053;-82
2022/07/08 04:09:52;;;;;;;14.30;4.07;;;;;;;;;;5148689;27;20407;-82
2022/07/08 04:12:18;;;;;;;14.82;4.10;;;;;;;;;;5136649;27;20410;-81
2022/07/08 04:14:44;;;;;;;18.35;4.43;;;;;;;;;;5117555;27;20038;-82
2022/07/08 04:17:10;;;;;;;18.48;4.40;;;;;;;;;;5151170;27;20446;-83
2022/07/08 04:19:37;;;;;;;19.67;4.70;;;;;;;;;;5151266;27;20450;-83
2022/07/08 04:22:03;;;;;;;18.10;4.60;;;;;;;;;;5132462;27;20209;-79
2022/07/08 04:24:29;;;;;;;17.00;4.40;;;;;;;;;;5115230;27;20055;-83
2022/07/08 04:26:55;;;;;;;15.52;4.30;;;;;;;;;;5148237;27;20054;-82
2022/07/08 04:29:22;;;;;;;21.92;4.70;;;;;;;;;;5151281;27;20098;-82
2022/07/08 04:31:48;;;;;;;18.27;4.72;;;;;;;;;;5148824;27;20043;-85
2022/07/08 04:34:14;;;;;;;19.85;4.72;;;;;;;;;;5130644;27;20428;-82
2022/07/08 04:36:40;;;;;;;24.05;4.25;;;;;;;;;;5130582;27;20073;-83
2022/07/08 04:39:06;;;;;;;19.85;4.57;;;;;;;;;;5130226;27;20070;-85
2022/07/08 04:41:32;;;;;;;25.10;4.70;;;;;;;;;;5131733;27;20123;-82
2022/07/08 04:43:58;;;;;;;16.67;4.18;;;;;;;;;;5137161;27;20058;-80
2022/07/08 04:46:24;;;;;;;24.25;4.70;;;;;;;;;;5151258;27;20114;-81
2022/07/08 04:48:50;;;;;;;22.35;4.68;;;;;;;;;;5150746;27;20095;-78
2022/07/08 04:51:16;;;;;;;18.70;4.40;;;;;;;;;;5139312;27;20089;-81
2022/07/08 04:53:42;;;;;;;16.77;4.13;;;;;;;;;;5150592;27;20107;-82
2022/07/08 04:56:08;;;;;;;17.38;4.03;;;;;;;;;;5149588;27;20142;-80
2022/07/08 04:58:34;;;;;;;17.80;4.20;;;;;;;;;;5150963;27;20046;-83
2022/07/08 05:01:00;;;;;;;20.02;4.43;;;;;;;;;;5141974;27;20043;-84
2022/07/08 05:03:26;;;;;;;20.52;4.32;;;;;;;;;;5143547;27;20049;-83
2022/07/08 05:05:52;;;;;;;23.30;4.32;;;;;;;;;;5136491;27;20086;-80
2022/07/08 05:08:18;;;;;;;21.20;4.38;;;;;;;;;;5156414;27;20054;-83
2022/07/08 05:10:44;;;;;;;19.60;4.45;;;;;;;;;;5150134;27;20039;-80
2022/07/08 05:13:12;;;;;;;15.43;4.13;;;;;;;;;;5135233;27;20170;-83
2022/07/08 05:15:38;;;;;;;19.13;4.32;;;;;;;;;;5154409;27;20058;-81
2022/07/08 05:18:04;;;;;;;21.35;4.50;;;;;;;;;;5133616;27;20053;-78
2022/07/08 05:20:30;;;;;;;19.92;3.90;;;;;;;;;;5151670;27;20402;-78
2022/07/08 05:22:56;;;;;;;21.73;4.40;;;;;;;;;;5138843;27;20039;-81
2022/07/08 05:25:22;;;;;;;16.17;4.45;;;;;;;;;;5151115;27;20181;-82
2022/07/08 05:27:48;;;;;;;22.33;4.60;;;;;;;;;;5151096;27;20074;-81
2022/07/08 05:30:15;;;;;;;21.27;5.45;;;;;;;;;;5135248;27;20047;-79
2022/07/08 05:32:41;;;;;;;18.08;4.38;;;;;;;;;;5110341;27;20467;-81
2022/07/08 05:35:07;;;;;;;;;;;;;;;;;;5149428;27;20043;-74
2022/07/08 05:37:36;;;;;;;20.00;4.78;;;;;;;;;;5136658;27;19983;-77
2022/07/08 05:40:02;;;;;;;22.92;4.35;;;;;;;;;;5138254;27;20145;-81
2022/07/08 05:42:28;;;;;;;24.58;4.75;;;;;;;;;;5109154;27;20351;-81
2022/07/08 05:44:54;;;;;;;17.10;4.32;;;;;;;;;;5139960;27;20041;-78
2022/07/08 05:47:20;;;;;;;20.83;4.45;;;;;;;;;;5148430;27;20235;-82
2022/07/08 05:49:46;;;;;;;21.77;4.28;;;;;;;;;;5139392;27;20482;-78
2022/07/08 05:52:12;;;;;;;19.52;4.13;;;;;;;;;;5144830;27;20117;-81
2022/07/08 05:54:38;;;;;;;21.23;4.68;;;;;;;;;;5140646;27;20086;-80
2022/07/08 05:57:05;;;;;;;20.13;4.53;;;;;;;;;;5139494;27;20126;-85
2022/07/08 05:59:32;;;;;;;20.98;4.93;;;;;;;;;;5138926;27;21284;-83
2022/07/08 06:01:58;;;;;;;18.73;3.95;;;;;;;;;;5128753;27;20046;-84
2022/07/08 06:04:24;;;;;;;17.60;4.07;;;;;;;;;;5095350;27;20359;-78
2022/07/08 06:06:50;;;;;;;16.23;4.00;;;;;;;;;;5132548;27;20092;-77
2022/07/08 06:09:16;;;;;;;18.67;4.05;;;;;;;;;;5138211;27;20052;-77
2022/07/08 06:11:42;;;;;;;22.80;4.57;;;;;;;;;;5147267;27;20061;-78
2022/07/08 06:14:08;;;;;;;19.08;4.25;;;;;;;;;;5142060;27;20034;-81
2022/07/08 06:16:34;;;;;;;16.73;3.80;;;;;;;;;;5144495;27;20114;-84
2022/07/08 06:19:00;;;;;;;18.75;4.32;;;;;;;;;;5122780;27;20058;-81
2022/07/08 06:21:26;;;;;;;20.38;3.83;;;;;;;;;;5146923;27;20138;-82
2022/07/08 06:23:53;;;;;;;16.10;4.15;;;;;;;;;;5130800;27;20358;-73
2022/07/08 06:26:19;;;;;;;25.08;4.47;;;;;;;;;;5144327;27;20155;-81
2022/07/08 06:28:45;;;;;;;16.65;4.13;;;;;;;;;;5139610;27;20138;-74
2022/07/08 06:31:11;;;;;;;13.25;3.60;;;;;;;;;;5142106;27;20102;-78
2022/07/08 06:33:37;;;;;;;12.88;4.00;;;;;;;;;;5145303;27;20039;-79
2022/07/08 06:36:03;;;;;;;19.05;4.18;;;;;;;;;;5136519;27;20043;-80
2022/07/08 06:38:29;;;;;;;;;;;;;;;;;;5142648;27;20099;-79
2022/07/08 06:40:56;;;;;;;20.05;4.47;;;;;;;;;;5134270;27;20344;-79
2022/07/08 06:43:22;;;;;;;17.30;4.32;;;;;;;;;;5143913;27;20043;-78
2022/07/08 06:45:49;;;;;;;15.30;4.00;;;;;;;;;;5134573;27;20457;-75
2022/07/08 06:48:15;;;;;;;;;;;;;;;;;;5146025;27;20049;-77
2022/07/08 06:50:41;;;;;;;16.83;4.03;;;;;;;;;;5133391;27;19923;-78
2022/07/08 06:53:07;;;;;;;24.13;5.88;;;;;;;;;;5121388;27;20042;-76
2022/07/08 06:55:34;;;;;;;16.80;3.72;;;;;;;;;;5134529;27;20047;-76
2022/07/08 06:58:00;;;;;;;;;;;;;;;;;;5136389;27;20046;-75
2022/07/08 07:00:26;;;;;;;18.42;3.65;;;;;;;;;;5149692;27;20086;-74
2022/07/08 07:02:52;;;;;;;14.93;3.75;;;;;;;;;;5141576;27;20047;-79
2022/07/08 07:05:19;;;;;;;18.30;3.75;;;;;;;;;;5137575;27;20139;-76
2022/07/08 07:07:46;;;;;;;17.23;3.70;;;;;;;;;;5132511;27;20093;-77
2022/07/08 07:10:12;;;;;;;16.50;4.10;;;;;;;;;;5131622;27;20055;-77
2022/07/08 07:12:38;;;;;;;;;;;;;;;;;;5145408;27;20401;-77
2022/07/08 07:15:04;;;;;;;21.58;3.50;;;;;;;;;;5147820;27;19919;-76
2022/07/08 07:17:30;;;;;;;18.20;3.78;;;;;;;;;;5146885;27;20884;-76
2022/07/08 07:19:58;;;;;;;15.20;3.67;;;;;;;;;;5149479;27;20499;-78
2022/07/08 07:22:24;;;;;;;13.27;3.53;;;;;;;;;;5136250;27;20046;-75
2022/07/08 07:24:51;;;;;;;15.52;3.55;;;;;;;;;;5118711;27;20115;-74
2022/07/08 07:27:17;;;;;;;15.43;3.58;;;;;;;;;;5140445;27;20119;-78
2022/07/08 07:29:43;;;;;;;16.33;3.85;;;;;;;;;;5130151;27;20202;-72
2022/07/08 07:32:09;;;;;;;19.13;3.70;;;;;;;;;;5112637;27;20490;-79
2022/07/08 07:34:35;;;;;;;15.75;4.30;;;;;;;;;;5141663;27;20042;-73
2022/07/08 07:37:01;;;;;;;13.95;2.90;;;;;;;;;;5133715;27;20050;-72
2022/07/08 07:39:27;;;;;;;;;;;;;;;;;;5141228;27;20039;-77
2022/07/08 07:41:53;;;;;;;16.17;3.50;;;;;;;;;;5141293;27;19945;-76
2022/07/08 07:44:19;;;;;;;15.65;3.47;;;;;;;;;;5130357;27;20393;-75
2022/07/08 07:46:45;;;;;;;17.60;3.88;;;;;;;;;;5131752;27;20473;-79
2022/07/08 07:49:13;;;;;;;16.08;3.65;;;;;;;;;;5124755;27;20038;-76
2022/07/08 07:51:39;;;;;;;16.52;3.53;;;;;;;;;;5135161;27;20043;-75
2022/07/08 07:54:05;;;;;;;;;;;;;;;;;;5135021;27;20081;-73
2022/07/08 07:56:31;;;;;;;20.27;4.32;;;;;;;;;;5137904;27;20252;-71
2022/07/08 07:58:57;;;;;;;;;;;;;;;;;;5109980;27;20130;-76
2022/07/08 08:01:23;;;;;;;18.50;4.30;;;;;;;;;;5134893;27;20038;-78
2022/07/08 08:03:50;;;;;;;14.00;3.47;;;;;;;;;;5123957;27;20043;-77
2022/07/08 08:06:16;;;;;;;;;;;;;;;;;;5139855;27;20138;-76
2022/07/08 08:08:42;;;;;;;14.77;3.65;;;;;;;;;;5140590;27;20017;-77
2022/07/08 08:11:08;;;;;;;13.52;3.10;;;;;;;;;;5132472;27;20074;-79
2022/07/08 08:13:34;;;;;;;16.38;3.65;;;;;;;;;;5136791;27;20045;-74
2022/07/08 08:16:00;;;;;;;15.68;3.80;;;;;;;;;;5143028;27;20047;-76
2022/07/08 08:18:26;;;;;;;13.35;3.38;;;;;;;;;;5134733;27;20143;-77
2022/07/08 08:20:52;;;;;;;14.15;3.28;;;;;;;;;;5138578;27;20039;-78
2022/07/08 08:23:18;;;;;;;16.15;3.60;;;;;;;;;;5138577;27;20385;-74
2022/07/08 08:25:44;;;;;;;12.05;3.40;;;;;;;;;;5141068;27;20175;-78
2022/07/08 08:28:10;;;;;;;18.55;4.32;;;;;;;;;;5141252;27;20122;-80
2022/07/08 08:30:36;;;;;;;;;;;;;;;;;;5135755;27;20047;-78
2022/07/08 08:33:03;;;;;;;17.60;3.70;;;;;;;;;;5137380;27;20462;-72
2022/07/08 08:35:29;;;;;;;16.25;3.85;;;;;;;;;;5132275;27;20047;-75
2022/07/08 08:37:55;;;;;;;14.43;3.65;;;;;;;;;;5135726;27;20058;-76
2022/07/08 08:40:22;;;;;;;15.38;3.63;;;;;;;;;;5138758;27;20400;-76
2022/07/08 08:42:48;;;;;;;13.57;3.58;;;;;;;;;;5116206;27;20061;-74
2022/07/08 08:45:14;;;;;;;18.38;3.40;;;;;;;;;;5133268;27;20062;-75
2022/07/08 08:47:40;;;;;;;20.67;3.80;;;;;;;;;;5139280;27;20077;-74
2022/07/08 08:52:55;;;;;;;11.38;3.15;;;;;;;;;;5138973;27;20130;-75
2022/07/08 08:55:25;;;;;;;16.67;3.67;;;;;;;;;;5135803;27;20054;-76
2022/07/08 08:57:51;;;;;;;21.35;3.65;;;;;;;;;;5129302;27;20138;-76
2022/07/08 09:00:18;;;;;;;;;;;;;;;;;;5130000;27;20119;-74
2022/07/08 09:02:44;;;;;;;21.48;3.80;;;;;;;;;;5139670;27;19976;-73
2022/07/08 09:05:10;;;;;;;16.92;3.47;;;;;;;;;;5130138;27;20050;-72
2022/07/08 09:07:36;;;;;;;;;;;;;;;;;;5129342;27;20046;-71
2022/07/08 09:10:03;;;;;;;14.93;3.65;;;;;;;;;;5135364;27;19928;-75
2022/07/08 09:12:29;;;;;;;13.45;3.88;;;;;;;;;;5149499;27;20098;-77
2022/07/08 09:15:00;;;;;;;16.13;3.55;;;;;;;;;;5146205;27;20034;-72
2022/07/08 09:17:26;;;;;;;16.70;3.78;;;;;;;;;;5113532;27;20119;-73
2022/07/08 09:19:52;;;;;;;11.23;3.30;;;;;;;;;;5143376;27;20042;-72
2022/07/08 09:22:22;;;;;;;16.48;3.65;;;;;;;;;;5139821;27;20082;-69
2022/07/08 09:24:48;;;;;;;14.85;3.47;;;;;;;;;;5128172;27;20111;-69
2022/07/08 09:27:14;;;;;;;;;;;;;;;;;;5123446;27;20104;-73
2022/07/08 09:29:55;;;;;;;11.05;3.13;;;;;;;;;;5149084;27;19930;-76
2022/07/08 09:32:21;;;;;;;13.30;3.28;;;;;;;;;;5141613;27;20125;-77
2022/07/08 09:34:47;;;;;;;12.57;3.47;;;;;;;;;;5149137;27;20038;-71
2022/07/08 09:37:13;;;;;;;11.50;2.97;;;;;;;;;;5145537;27;20043;-70
2022/07/08 09:39:39;;;;;;;14.40;3.70;;;;;;;;;;5109424;27;20063;-73
2022/07/08 09:42:09;;;;;;;19.30;3.63;;;;;;;;;;5129785;27;20516;-71
2022/07/08 09:44:36;;;;;;;12.88;3.65;;;;;;;;;;5140944;27;20050;-72
2022/07/08 09:47:22;;;;;;;13.68;3.67;;;;;;;;;;5142504;27;20118;-76
2022/07/08 09:49:48;;;;;;;15.30;3.17;;;;;;;;;;5108818;27;20211;-75
2022/07/08 09:52:14;;;;;;;;;;;;;;;;;;5130254;27;20466;-70
2022/07/08 09:54:40;;;;;;;10.13;3.40;;;;;;;;;;5136086;27;19959;-70
2022/07/08 09:57:11;;;;;;;10.73;3.03;;;;;;;;;;5144873;27;20118;-68
2022/07/08 09:59:38;;;;;;;15.25;3.05;;;;;;;;;;5108613;27;20054;-71
2022/07/08 10:02:04;;;;;;;12.43;3.15;;;;;;;;;;5130059;27;20066;-66
2022/07/08 10:04:31;;;;;;;14.70;3.97;;;;;;;;;;5128493;27;20052;-73
2022/07/08 10:06:57;;;;;;;12.80;3.60;;;;;;;;;;5129150;27;20117;-70
2022/07/08 10:09:24;;;;;;;13.38;3.25;;;;;;;;;;5148976;27;20438;-73
2022/07/08 10:11:51;;;;;;;11.98;3.08;;;;;;;;;;5131272;27;20359;-73
2022/07/08 10:14:18;;;;;;;14.65;3.50;;;;;;;;;;5127984;28;20049;-68
2022/07/08 10:16:47;;;;;;;13.27;3.38;;;;;;;;;;5130720;27;20042;-67
2022/07/08 10:19:26;;;;;;;12.77;3.15;;;;;;;;;;5127811;28;20135;-69
2022/07/08 10:21:55;;;;;;;12.02;3.47;;;;;;;;;;5128066;27;20458;-72
2022/07/08 10:24:22;;;;;;;11.90;3.10;;;;;;;;;;5127834;27;20050;-69
2022/07/08 10:26:49;;;;;;;11.35;3.50;;;;;;;;;;5130985;27;20121;-70
2022/07/08 10:29:15;;;;;;;12.40;3.60;;;;;;;;;;5147467;27;20047;-72
2022/07/08 10:31:42;;;;;;;16.85;3.42;;;;;;;;;;5135098;27;20054;-70
2022/07/08 10:34:08;;;;;;;13.18;2.92;;;;;;;;;;5128665;27;20123;-71
2022/07/08 10:36:51;;;;;;;10.52;3.28;;;;;;;;;;5109851;28;20073;-76
2022/07/08 10:39:32;;;;;;;15.48;3.28;;;;;;;;;;5127392;27;20099;-70
2022/07/08 10:42:05;;;;;;;11.40;3.30;;;;;;;;;;5127237;28;20051;-71
2022/07/08 10:44:44;;;;;;;12.95;3.67;;;;;;;;;;5129090;27;20054;-70
2022/07/08 10:47:17;;;;;;;13.02;3.45;;;;;;;;;;5131147;27;20463;-77
2022/07/08 10:49:43;;;;;;;12.30;3.25;;;;;;;;;;5146874;27;20046;-68
2022/07/08 10:52:10;;;;;;;12.93;3.25;;;;;;;;;;5146196;27;20465;-69
2022/07/08 10:54:39;;;;;;;12.15;3.58;;;;;;;;;;5137637;27;20127;-70
2022/07/08 10:57:09;;;;;;;13.63;3.42;;;;;;;;;;5136392;27;20053;-71
2022/07/08 10:59:38;;;;;;;14.70;3.92;;;;;;;;;;5148272;27;20470;-70
2022/07/08 11:02:04;;;;;;;14.40;3.47;;;;;;;;;;5132993;27;20043;-71
2022/07/08 11:04:31;;;;;;;;;;;;;;;;;;5128573;27;20057;-69
2022/07/08 11:07:22;;;;;;;14.63;3.50;;;;;;;;;;5131614;27;20005;-65
2022/07/08 11:09:52;;;;;;;13.43;3.72;;;;;;;;;;5151559;27;20074;-71
2022/07/08 11:12:20;;;;;;;16.85;3.70;;;;;;;;;;5142845;27;20146;-67
2022/07/08 11:14:50;;;;;;;11.27;3.58;;;;;;;;;;5148055;27;20190;-67
2022/07/08 11:17:19;;;;;;;14.57;4.15;;;;;;;;;;5131214;27;20068;-67
2022/07/08 11:19:46;;;;;;;12.95;3.75;;;;;;;;;;5130601;27;20051;-71
2022/07/08 11:22:12;;;;;;;12.98;3.45;;;;;;;;;;5121953;27;20159;-73
2022/07/08 11:24:39;;;;;;;15.10;3.97;;;;;;;;;;5131210;27;20047;-75
2022/07/08 11:27:05;;;;;;;11.98;3.80;;;;;;;;;;5132221;27;20043;-70
2022/07/08 11:29:31;;;;;;;10.45;3.63;;;;;;;;;;5112489;27;20392;-78
2022/07/08 11:31:59;;;;;;;14.18;3.38;;;;;;;;;;5130691;27;20162;-73
2022/07/08 11:34:25;;;;;;;12.70;3.80;;;;;;;;;;5145309;27;20355;-70
2022/07/08 11:36:51;;;;;;;;;;;;;;;;;;5144225;27;20103;-68
2022/07/08 11:39:17;;;;;;;13.10;3.80;;;;;;;;;;5130771;27;20154;-72
2022/07/08 11:41:43;;;;;;;11.93;3.50;;;;;;;;;;5134601;27;20047;-71
2022/07/08 11:44:09;;;;;;;11.63;3.35;;;;;;;;;;5151462;27;20126;-67
2022/07/08 11:46:44;;;;;;;14.20;3.60;;;;;;;;;;5138894;27;20431;-71
2022/07/08 11:49:10;;;;;;;16.77;3.90;;;;;;;;;;5130941;27;20127;-73
2022/07/08 11:51:36;;;;;;;;;;;;;;;;;;5130690;27;20046;-73
2022/07/08 11:54:02;;;;;;;14.63;4.07;;;;;;;;;;5129522;27;19919;-75
2022/07/08 11:56:28;;;;;;;;;;;;;;;;;;5131060;27;20059;-68
2022/07/08 11:58:54;;;;;;;14.00;3.78;;;;;;;;;;5130320;27;19972;-70
2022/07/08 12:01:21;;;;;;;13.05;3.90;;;;;;;;;;5130749;27;20054;-69
2022/07/08 12:03:47;;;;;;;14.90;3.95;;;;;;;;;;5135905;27;20043;-69
2022/07/08 12:06:13;;;;;;;;;;;;;;;;;;5151439;27;20426;-69
2022/07/08 12:08:43;;;;;;;13.75;3.80;;;;;;;;;;5142917;27;20006;-72
2022/07/08 12:11:16;;;;;;;12.88;4.18;;;;;;;;;;5134431;27;20064;-66
2022/07/08 12:13:46;;;;;;;13.48;4.47;;;;;;;;;;5150779;27;20087;-69
2022/07/08 12:16:27;;;;;;;14.73;4.05;;;;;;;;;;5147415;27;20076;-69
2022/07/08 12:18:53;;;;;;;11.60;4.90;;;;;;;;;;5129618;27;20057;-72
2022/07/08 12:21:19;;;;;;;;;;;;;;;;;;5140370;27;20053;-76
2022/07/08 12:23:46;;;;;;;14.15;4.13;;;;;;;;;;5131764;27;19944;-75
2022/07/08 12:26:12;;;;;;;17.85;5.40;;;;;;;;;;5149107;27;20066;-65
2022/07/08 12:28:38;;;;;;;15.20;4.85;;;;;;;;;;5147899;27;20061;-68
2022/07/08 12:31:04;;;;;;;;;;;;;;;;;;5130144;27;20039;-70
2022/07/08 12:33:32;;;;;;;16.83;4.72;;;;;;;;;;5111742;27;19943;-71
2022/07/08 12:35:58;;;;;;;16.77;4.47;;;;;;;;;;5110403;27;20127;-68
2022/07/08 12:38:24;;;;;;;;;;;;;;;;;;5144941;27;20054;-68
2022/07/08 12:40:50;;;;;;;18.92;4.55;;;;;;;;;;5144774;27;19919;-67
2022/07/08 12:43:16;;;;;;;;;;;;;;;;;;5146371;27;20050;-70
2022/07/08 12:45:42;;;;;;;13.45;4.30;;;;;;;;;;5150035;27;19987;-70
2022/07/08 12:48:08;;;;;;;;;;;;;;;;;;5130228;27;20371;-67
2022/07/08 12:50:34;;;;;;;14.07;4.15;;;;;;;;;;5110397;27;19923;-73
2022/07/08 12:53:01;;;;;;;14.05;3.95;;;;;;;;;;5114385;27;20495;-71
2022/07/08 12:55:27;;;;;;;19.15;4.40;;;;;;;;;;5128667;27;20055;-73
2022/07/08 12:57:54;;;;;;;18.83;4.65;;;;;;;;;;5128455;27;20112;-74
2022/07/08 13:00:20;;;;;;;19.35;5.13;;;;;;;;;;5134749;27;20046;-71
2022/07/08 13:02:46;;;;;;;;;;;;;;;;;;5150256;27;20043;-67
2022/07/08 13:05:12;;;;;;;13.98;5.15;;;;;;;;;;5139552;27;19979;-68
2022/07/08 13:07:38;;;;;;;23.13;4.60;;;;;;;;;;5123704;27;20054;-72
2022/07/08 13:10:05;;;;;;;14.32;4.63;;;;;;;;;;5148888;27;20443;-67
2022/07/08 13:12:31;;;;;;;11.73;4.28;;;;;;;;;;5148497;27;20047;-73
2022/07/08 13:14:57;;;;;;;;;;;;;;;;;;5143148;27;20057;-68
2022/07/08 13:17:23;;;;;;;15.05;4.47;;;;;;;;;;5128797;27;19927;-65
2022/07/08 13:19:49;;;;;;;;;;;;;;;;;;5147766;27;20046;-67
2022/07/08 13:22:15;;;;;;;16.85;4.55;;;;;;;;;;5148822;27;20331;-69
2022/07/08 13:24:41;;;;;;;;;;;;;;;;;;5149629;27;20038;-68
2022/07/08 13:27:07;;;;;;;15.10;4.43;;;;;;;;;;5129229;27;20268;-72
2022/07/08 13:29:33;;;;;;;15.35;4.28;;;;;;;;;;5128543;27;20060;-77
2022/07/08 13:31:59;;;;;;;;;;;;;;;;;;5128616;27;20381;-71
2022/07/08 13:34:25;;;;;;;14.60;4.07;;;;;;;;;;5127931;27;19920;-72
2022/07/08 13:36:51;;;;;;;;;;;;;;;;;;5132099;27;20047;-70
2022/07/08 13:39:17;;;;;;;14.13;4.15;;;;;;;;;;5127957;27;19987;-70
2022/07/08 13:41:43;;;;;;;14.07;5.18;;;;;;;;;;5109579;27;20255;-70
2022/07/08 13:44:09;;;;;;;15.15;5.03;;;;;;;;;;5128197;27;20050;-70
2022/07/08 13:46:35;;;;;;;;;;;;;;;;;;5130680;27;20179;-66
2022/07/08 13:49:01;;;;;;;15.90;4.90;;;;;;;;;;5147488;27;19951;-71
2022/07/08 13:51:27;;;;;;;;;;;;;;;;;;5148177;27;20042;-68
2022/07/08 13:53:54;;;;;;;14.75;4.97;;;;;;;;;;5148804;27;19938;-71
2022/07/08 13:56:21;;;;;;;14.80;4.18;;;;;;;;;;5147780;27;20063;-70
2022/07/08 13:58:48;;;;;;;13.70;4.18;;;;;;;;;;5127211;27;20539;-75
2022/07/08 14:01:15;;;;;;;14.27;4.72;;;;;;;;;;5138929;27;20202;-72
2022/07/08 14:03:41;;;;;;;16.77;4.53;;;;;;;;;;5127855;27;20092;-69
2022/07/08 14:06:07;;;;;;;;;;;;;;;;;;5128082;27;20122;-67
2022/07/08 14:08:33;;;;;;;12.10;3.50;;;;;;;;;;5128352;27;20098;-68
2022/07/08 14:11:01;;;;;;;13.75;3.90;;;;;;;;;;5139200;27;20074;-71
2022/07/08 14:13:27;;;;;;;12.48;3.83;;;;;;;;;;5130096;27;20150;-67
2022/07/08 14:15:53;;;;;;;18.60;4.68;;;;;;;;;;5116269;27;20038;-68
2022/07/08 14:18:19;;;;;;;;;;;;;;;;;;5135221;27;20447;-67
2022/07/08 14:20:45;;;;;;;12.43;3.95;;;;;;;;;;5113809;27;19919;-75
2022/07/08 14:23:11;;;;;;;;;;;;;;;;;;5148508;27;20054;-75
2022/07/08 14:25:37;;;;;;;15.32;4.30;;;;;;;;;;5147370;27;20061;-69
2022/07/08 14:28:03;;;;;;;13.27;4.50;;;;;;;;;;5148576;27;20474;-76
2022/07/08 14:30:29;;;;;;;;;;;;;;;;;;5134564;27;20042;-69
2022/07/08 14:32:55;;;;;;;20.33;4.72;;;;;;;;;;5124965;27;19929;-74
2022/07/08 14:35:21;;;;;;;16.88;5.35;;;;;;;;;;5147942;27;20470;-70
2022/07/08 14:37:47;;;;;;;16.55;5.10;;;;;;;;;;5147156;27;20494;-75
2022/07/08 14:40:13;;;;;;;13.25;4.78;;;;;;;;;;5138145;27;20477;-76
2022/07/08 14:42:39;;;;;;;;;;;;;;;;;;5127041;27;20039;-80
2022/07/08 14:45:06;;;;;;;18.10;4.93;;;;;;;;;;5134246;27;20017;-72
2022/07/08 14:47:32;;;;;;;16.42;5.18;;;;;;;;;;5117852;27;20043;-73